createdAt,value
2023-03-28T00:01:01.983Z,98.47
2023-03-28T00:03:30.174Z,98.49
2023-03-28T00:06:00.929Z,97.19
2023-03-28T00:08:29.833Z,97.42
2023-03-28T00:11:05.847Z,98.14
2023-03-28T00:13:35.658Z,99.54
2023-03-28T00:16:05.921Z,96.28
2023-03-28T00:18:39.102Z,97.39
2023-03-28T00:21:10.308Z,98.17
2023-03-28T00:23:37.967Z,98.01
2023-03-28T00:26:08.886Z,97.37
2023-03-28T00:28:38.061Z,98.73
2023-03-28T00:31:06.944Z,97.64
2023-03-28T00:33:35.023Z,97.01
2023-03-28T00:36:03.196Z,98.08
2023-03-28T00:38:31.474Z,96.51
2023-03-28T00:40:59.281Z,98.64
2023-03-28T00:43:40.198Z,97.98
2023-03-28T00:46:14.027Z,99.06
2023-03-28T00:48:48.076Z,100.00
2023-03-28T00:51:16.214Z,99.85
2023-03-28T00:53:44.050Z,100.00
2023-03-28T00:56:14.203Z,100.00
2023-03-28T00:58:44.908Z,100.00
2023-03-28T01:01:15.781Z,99.26
2023-03-28T01:03:47.398Z,99.61
2023-03-28T01:06:16.511Z,100.00
2023-03-28T01:08:47.183Z,100.00
2023-03-28T01:11:15.848Z,100.00
2023-03-28T01:13:48.081Z,100.00
2023-03-28T01:16:16.796Z,99.90
2023-03-28T01:18:47.282Z,100.00
2023-03-28T01:21:48.849Z,99.51
2023-03-28T01:24:38.395Z,100.00
2023-03-28T01:27:08.444Z,100.00
2023-03-28T01:30:02.592Z,99.98
2023-03-28T01:33:02.976Z,100.00
2023-03-28T01:35:52.130Z,100.00
2023-03-28T01:38:27.734Z,100.00
2023-03-28T01:41:02.552Z,100.00
2023-03-28T01:43:38.046Z,100.00
2023-03-28T01:46:09.631Z,100.00
2023-03-28T01:48:43.387Z,100.00
2023-03-28T01:51:14.336Z,100.00
2023-03-28T01:53:45.940Z,100.00
2023-03-28T01:56:18.769Z,100.00
2023-03-28T01:58:52.152Z,100.00
2023-03-28T02:01:24.886Z,100.00
2023-03-28T02:03:56.132Z,100.00
2023-03-28T02:06:24.618Z,100.00
2023-03-28T02:08:55.451Z,100.00
2023-03-28T02:11:24.005Z,100.00
2023-03-28T02:13:54.659Z,100.00
2023-03-28T02:16:24.677Z,100.00
2023-03-28T02:18:55.346Z,100.00
2023-03-28T02:21:26.857Z,100.00
2023-03-28T02:23:56.749Z,100.00
2023-03-28T02:26:25.133Z,100.00
2023-03-28T02:28:55.014Z,100.00
2023-03-28T02:31:23.870Z,100.00
2023-03-28T02:33:53.224Z,100.00
2023-03-28T02:36:30.078Z,100.00
2023-03-28T02:39:13.844Z,100.00
2023-03-28T02:41:49.162Z,100.00
2023-03-28T02:44:38.139Z,100.00
2023-03-28T02:47:13.252Z,100.00
2023-03-28T02:49:50.438Z,100.00
2023-03-28T02:52:25.033Z,100.00
2023-03-28T02:54:58.936Z,100.00
2023-03-28T02:57:32.441Z,100.00
2023-03-28T03:00:12.356Z,100.00
2023-03-28T03:02:40.754Z,100.00
2023-03-28T03:05:09.759Z,100.00
2023-03-28T03:07:38.481Z,100.00
2023-03-28T03:10:09.284Z,100.00
2023-03-28T03:12:37.969Z,100.00
2023-03-28T03:15:07.273Z,100.00
2023-03-28T03:17:35.046Z,100.00
2023-03-28T03:20:06.874Z,100.00
2023-03-28T03:22:34.851Z,100.00
2023-03-28T03:25:06.609Z,100.00
2023-03-28T03:27:36.675Z,100.00
2023-03-28T03:30:05.372Z,100.00
2023-03-28T03:32:33.376Z,100.00
2023-03-28T03:35:01.191Z,100.00
2023-03-28T03:37:28.848Z,100.00
2023-03-28T03:39:56.536Z,100.00
2023-03-28T03:42:24.274Z,100.00
2023-03-28T03:44:54.439Z,100.00
2023-03-28T03:47:22.415Z,100.00
2023-03-28T03:49:50.100Z,100.00
2023-03-28T03:52:17.769Z,100.00
2023-03-28T03:54:45.711Z,100.00
2023-03-28T03:57:13.430Z,100.00
2023-03-28T03:59:41.136Z,100.00
2023-03-28T04:02:10.726Z,100.00
2023-03-28T04:04:40.483Z,100.00
2023-03-28T04:07:08.556Z,100.00
2023-03-28T04:09:36.330Z,100.00
2023-03-28T04:12:04.227Z,100.00
2023-03-28T04:14:31.930Z,100.00
2023-03-28T04:16:59.617Z,100.00
2023-03-28T04:19:28.683Z,100.00
2023-03-28T04:21:57.438Z,100.00
2023-03-28T04:24:25.359Z,100.00
2023-03-28T04:26:55.858Z,100.00
2023-03-28T04:29:30.980Z,100.00
2023-03-28T04:31:58.912Z,100.00
2023-03-28T04:34:30.815Z,100.00
2023-03-28T04:37:01.690Z,100.00
2023-03-28T04:39:30.290Z,100.00
2023-03-28T04:42:01.883Z,100.00
2023-03-28T04:44:30.335Z,100.00
2023-03-28T04:46:58.353Z,100.00
2023-03-28T04:49:26.665Z,100.00
2023-03-28T04:51:55.838Z,100.00
2023-03-28T04:54:23.566Z,100.00
2023-03-28T04:56:51.668Z,100.00
2023-03-28T04:59:19.894Z,100.00
2023-03-28T05:01:50.092Z,100.00
2023-03-28T05:04:18.524Z,100.00
2023-03-28T05:06:46.557Z,100.00
2023-03-28T05:09:16.418Z,100.00
2023-03-28T05:11:46.390Z,100.00
2023-03-28T05:14:14.106Z,100.00
2023-03-28T05:16:42.073Z,100.00
2023-03-28T05:19:12.872Z,100.00
2023-03-28T05:21:41.101Z,100.00
2023-03-28T05:24:10.001Z,100.00
2023-03-28T05:26:39.096Z,100.00
2023-03-28T05:29:07.163Z,100.00
2023-03-28T05:31:34.919Z,100.00
2023-03-28T05:34:02.646Z,100.00
2023-03-28T05:36:30.819Z,100.00
2023-03-28T05:38:58.491Z,100.00
2023-03-28T05:41:26.542Z,100.00
2023-03-28T05:43:56.093Z,100.00
2023-03-28T05:46:23.949Z,100.00
2023-03-28T05:48:51.683Z,100.00
2023-03-28T05:51:19.392Z,100.00
2023-03-28T05:53:47.131Z,100.00
2023-03-28T05:56:15.021Z,100.00
2023-03-28T05:58:42.690Z,100.00
2023-03-28T06:01:12.814Z,100.00
2023-03-28T06:03:42.788Z,100.00
2023-03-28T06:06:10.719Z,100.00
2023-03-28T06:08:38.896Z,100.00
2023-03-28T06:11:12.604Z,100.00
2023-03-28T06:13:40.393Z,99.97
2023-03-28T06:16:08.414Z,100.00
2023-03-28T06:18:37.523Z,100.00
2023-03-28T06:21:05.939Z,100.00
2023-03-28T06:23:33.726Z,100.00
2023-03-28T06:26:01.546Z,100.00
2023-03-28T06:28:29.226Z,100.00
2023-03-28T06:30:56.928Z,100.00
2023-03-28T06:33:24.659Z,100.00
2023-03-28T06:35:53.772Z,100.00
2023-03-28T06:38:21.582Z,100.00
2023-03-28T06:40:49.467Z,99.77
2023-03-28T06:43:17.150Z,100.00
2023-03-28T06:45:44.883Z,100.00
2023-03-28T06:48:12.587Z,100.00
2023-03-28T06:50:40.280Z,100.00
2023-03-28T06:53:09.389Z,100.00
2023-03-28T06:55:37.077Z,100.00
2023-03-28T06:58:05.474Z,100.00
2023-03-28T07:00:33.159Z,99.10
2023-03-28T07:03:00.904Z,100.00
2023-03-28T07:05:29.763Z,97.71
2023-03-28T07:07:57.698Z,99.44
2023-03-28T07:10:26.870Z,98.30
2023-03-28T07:12:54.593Z,100.00
2023-03-28T07:15:22.353Z,100.00
2023-03-28T07:17:50.314Z,98.40
2023-03-28T07:20:18.232Z,97.03
2023-03-28T07:22:46.075Z,95.59
2023-03-28T07:25:22.285Z,95.37
2023-03-28T07:27:51.457Z,94.50
2023-03-28T07:30:19.113Z,95.56
2023-03-28T07:32:56.223Z,91.65
2023-03-28T07:35:31.654Z,89.75
2023-03-28T07:38:00.295Z,91.97
2023-03-28T07:40:28.219Z,89.68
2023-03-28T07:42:57.479Z,90.10
2023-03-28T07:45:25.233Z,89.24
2023-03-28T07:47:52.923Z,88.05
2023-03-28T07:50:22.940Z,87.71
2023-03-28T07:52:57.608Z,87.97
2023-03-28T07:55:26.481Z,87.09
2023-03-28T07:57:54.460Z,86.50
2023-03-28T08:00:24.886Z,84.94
2023-03-28T08:02:53.217Z,86.13
2023-03-28T08:05:21.739Z,87.26
2023-03-28T08:07:53.880Z,83.90
2023-03-28T08:10:21.704Z,84.43
2023-03-28T08:12:49.486Z,86.65
2023-03-28T08:15:17.530Z,84.96
2023-03-28T08:17:46.721Z,85.28
2023-03-28T08:20:14.604Z,85.89
2023-03-28T08:22:42.453Z,86.00
2023-03-28T08:25:10.579Z,86.21
2023-03-28T08:27:38.280Z,86.38
2023-03-28T08:30:07.764Z,83.68
2023-03-28T08:32:35.855Z,84.05
2023-03-28T08:35:06.191Z,82.56
2023-03-28T08:40:27.167Z,79.07
2023-03-28T08:43:04.118Z,77.75
2023-03-28T08:45:42.380Z,74.03
2023-03-28T08:48:17.250Z,73.00
2023-03-28T08:50:48.000Z,72.24
2023-03-28T08:53:20.855Z,70.63
2023-03-28T08:55:50.583Z,71.23
2023-03-28T08:58:21.583Z,64.83
2023-03-28T09:00:50.464Z,65.66
2023-03-28T09:03:20.480Z,64.76
2023-03-28T09:06:16.728Z,63.18
2023-03-28T09:08:54.423Z,60.34
2023-03-28T09:11:30.889Z,62.30
2023-03-28T09:14:09.932Z,62.24
2023-03-28T09:16:48.903Z,62.89
2023-03-28T09:19:36.899Z,61.89
2023-03-28T09:22:19.758Z,63.07
2023-03-28T09:24:58.033Z,60.19
2023-03-28T09:27:29.788Z,56.74
2023-03-28T09:30:00.986Z,58.35
2023-03-28T09:32:31.904Z,59.06
2023-03-28T09:34:59.940Z,55.00
2023-03-28T09:37:32.704Z,53.41
2023-03-28T09:40:08.772Z,52.55
2023-03-28T09:42:43.208Z,53.16
2023-03-28T09:45:26.257Z,53.03
2023-03-28T09:47:54.032Z,54.88
2023-03-28T09:50:21.999Z,53.56
2023-03-28T09:52:52.074Z,53.57
2023-03-28T09:55:22.117Z,54.66
2023-03-28T09:58:02.051Z,53.25
2023-03-28T10:00:29.819Z,51.66
2023-03-28T10:02:57.676Z,52.40
2023-03-28T10:05:32.852Z,53.33
2023-03-28T10:08:04.373Z,53.32
2023-03-28T10:10:32.490Z,53.94
2023-03-28T10:13:04.179Z,53.42
2023-03-28T10:15:35.063Z,55.35
2023-03-28T10:18:24.009Z,54.96
2023-03-28T10:20:52.171Z,55.22
2023-03-28T10:23:22.645Z,54.51
2023-03-28T10:25:53.133Z,53.92
2023-03-28T10:28:28.517Z,53.86
2023-03-28T10:30:58.100Z,51.83
2023-03-28T10:33:27.926Z,51.15
2023-03-28T10:35:58.904Z,49.98
2023-03-28T10:41:03.261Z,49.11
2023-03-28T10:43:36.869Z,50.56
2023-03-28T10:46:08.991Z,51.37
2023-03-28T10:48:37.703Z,52.31
2023-03-28T10:51:09.080Z,52.75
2023-03-28T10:53:58.512Z,53.36
2023-03-28T10:56:31.051Z,51.43
2023-03-28T10:59:11.482Z,50.91
2023-03-28T11:01:49.864Z,50.50
2023-03-28T11:04:27.611Z,51.63
2023-03-28T11:07:01.746Z,51.00
2023-03-28T11:09:35.424Z,51.71
2023-03-28T11:12:14.932Z,50.10
2023-03-28T11:14:58.367Z,51.37
2023-03-28T11:17:31.320Z,50.62
2023-03-28T11:20:18.428Z,49.96
2023-03-28T11:23:05.087Z,50.99
2023-03-28T11:25:59.715Z,51.41
2023-03-28T11:28:35.358Z,50.60
2023-03-28T11:31:03.375Z,50.31
2023-03-28T11:33:35.854Z,50.95
2023-03-28T11:36:07.569Z,50.35
2023-03-28T11:38:39.227Z,50.35
2023-03-28T11:41:12.514Z,51.27
2023-03-28T11:43:45.965Z,51.64
2023-03-28T11:46:17.031Z,51.25
2023-03-28T11:48:47.979Z,52.17
2023-03-28T11:51:18.258Z,50.94
2023-03-28T11:53:51.469Z,51.15
2023-03-28T11:56:28.567Z,49.27
2023-03-28T11:59:23.613Z,51.27
2023-03-28T12:01:56.484Z,50.51
2023-03-28T12:04:28.670Z,50.44
2023-03-28T12:07:07.457Z,50.09
2023-03-28T12:09:37.764Z,50.30
2023-03-28T12:12:10.113Z,49.41
2023-03-28T12:14:46.193Z,49.49
2023-03-28T12:17:18.388Z,48.31
2023-03-28T12:19:48.502Z,48.61
2023-03-28T12:22:21.461Z,49.25
2023-03-28T12:24:57.541Z,46.79
2023-03-28T12:27:35.554Z,47.95
2023-03-28T12:30:10.073Z,48.30
2023-03-28T12:32:43.496Z,46.50
2023-03-28T12:35:15.717Z,46.57
2023-03-28T12:37:54.560Z,45.42
2023-03-28T12:40:27.363Z,47.21
2023-03-28T12:42:57.667Z,46.55
2023-03-28T12:45:31.112Z,45.15
2023-03-28T12:48:03.450Z,45.64
2023-03-28T12:50:33.780Z,45.43
2023-03-28T12:53:01.536Z,45.86
2023-03-28T12:55:47.022Z,45.89
2023-03-28T12:58:22.681Z,45.95
2023-03-28T13:01:00.393Z,44.92
2023-03-28T13:03:36.371Z,45.28
2023-03-28T13:06:12.088Z,45.10
2023-03-28T13:08:51.709Z,44.75
2023-03-28T13:11:26.655Z,43.20
2023-03-28T13:16:47.342Z,41.38
2023-03-28T13:19:18.634Z,40.37
2023-03-28T13:21:49.738Z,38.59
2023-03-28T13:24:31.922Z,39.70
2023-03-28T13:27:01.376Z,41.36
2023-03-28T13:29:45.713Z,41.51
2023-03-28T13:32:16.512Z,43.35
2023-03-28T13:34:51.386Z,41.21
2023-03-28T13:37:23.253Z,40.75
2023-03-28T13:39:52.672Z,39.91
2023-03-28T13:42:29.064Z,39.54
2023-03-28T13:44:59.570Z,38.47
2023-03-28T13:47:33.873Z,38.64
2023-03-28T13:50:05.019Z,39.36
2023-03-28T13:52:33.470Z,39.21
2023-03-28T13:55:02.505Z,41.20
2023-03-28T13:57:31.615Z,38.71
2023-03-28T14:00:01.422Z,38.79
2023-03-28T14:02:38.093Z,40.45
2023-03-28T14:05:14.930Z,40.17
2023-03-28T14:07:42.905Z,39.45
2023-03-28T14:10:29.771Z,38.28
2023-03-28T14:12:59.944Z,38.26
2023-03-28T14:15:30.481Z,38.27
2023-03-28T14:18:00.461Z,37.71
2023-03-28T14:20:29.436Z,38.52
2023-03-28T14:23:01.013Z,38.56
2023-03-28T14:25:30.735Z,38.23
2023-03-28T14:27:59.052Z,39.43
2023-03-28T14:30:28.949Z,40.26
2023-03-28T14:33:00.123Z,43.43
2023-03-28T14:35:30.095Z,42.63
2023-03-28T14:37:59.141Z,42.35
2023-03-28T14:40:32.930Z,40.67
2023-03-28T14:43:04.436Z,43.06
2023-03-28T14:45:36.258Z,43.04
2023-03-28T14:48:07.241Z,41.16
2023-03-28T14:50:37.458Z,39.17
2023-03-28T14:53:07.898Z,38.21
2023-03-28T14:55:36.847Z,37.45
2023-03-28T14:58:06.136Z,38.07
2023-03-28T15:01:04.793Z,38.51
2023-03-28T15:03:35.460Z,41.19
2023-03-28T15:06:03.840Z,40.57
2023-03-28T15:08:34.497Z,40.62
2023-03-28T15:11:15.527Z,40.37
2023-03-28T15:13:44.795Z,41.72
2023-03-28T15:16:18.410Z,40.00
2023-03-28T15:18:54.908Z,38.14
2023-03-28T15:21:23.801Z,39.05
2023-03-28T15:23:55.890Z,39.74
2023-03-28T15:26:27.853Z,39.07
2023-03-28T15:29:16.514Z,36.75
2023-03-28T15:31:45.156Z,37.04
2023-03-28T15:34:20.531Z,36.97
2023-03-28T15:36:54.241Z,38.42
2023-03-28T15:39:25.507Z,35.96
2023-03-28T15:41:55.379Z,38.28
2023-03-28T15:44:27.778Z,38.04
2023-03-28T15:46:57.778Z,37.61
2023-03-28T15:49:27.117Z,38.15
2023-03-28T15:51:57.508Z,38.88
2023-03-28T15:54:31.483Z,37.35
2023-03-28T15:57:02.331Z,36.62
2023-03-28T15:59:33.974Z,33.95
2023-03-28T16:02:22.112Z,34.69
2023-03-28T16:05:02.235Z,36.09
2023-03-28T16:07:35.818Z,37.39
2023-03-28T16:10:04.090Z,38.12
2023-03-28T16:12:31.828Z,36.04
2023-03-28T16:14:59.474Z,38.84
2023-03-28T16:17:31.064Z,39.82
2023-03-28T16:19:59.449Z,39.79
2023-03-28T16:22:28.559Z,40.75
2023-03-28T16:24:56.407Z,40.31
2023-03-28T16:27:24.142Z,40.19
2023-03-28T16:29:51.916Z,40.38
2023-03-28T16:32:23.787Z,41.26
2023-03-28T16:34:52.411Z,41.39
2023-03-28T16:37:20.623Z,41.60
2023-03-28T16:39:50.088Z,41.00
2023-03-28T16:42:20.869Z,42.29
2023-03-28T16:44:48.687Z,42.00
2023-03-28T16:47:16.754Z,42.18
2023-03-28T16:49:44.921Z,42.25
2023-03-28T16:52:12.548Z,42.09
2023-03-28T16:54:40.662Z,42.24
2023-03-28T16:57:09.852Z,41.53
2023-03-28T16:59:37.583Z,41.78
2023-03-28T17:02:05.266Z,40.72
2023-03-28T17:04:33.321Z,42.61
2023-03-28T17:07:01.172Z,43.07
2023-03-28T17:09:29.003Z,42.59
2023-03-28T17:11:56.923Z,42.11
2023-03-28T17:14:26.396Z,42.89
2023-03-28T17:16:54.046Z,44.23
2023-03-28T17:19:24.118Z,43.01
2023-03-28T17:21:51.835Z,43.36
2023-03-28T17:24:21.419Z,43.55
2023-03-28T17:26:49.232Z,44.00
2023-03-28T17:29:17.151Z,42.25
2023-03-28T17:31:46.634Z,43.55
2023-03-28T17:34:14.402Z,43.44
2023-03-28T17:36:42.414Z,43.61
2023-03-28T17:39:11.610Z,44.58
2023-03-28T17:41:39.255Z,43.57
2023-03-28T17:44:08.883Z,44.24
2023-03-28T17:46:37.546Z,44.12
2023-03-28T17:49:08.140Z,44.57
2023-03-28T17:51:35.886Z,44.98
2023-03-28T17:54:06.494Z,43.49
2023-03-28T17:56:34.135Z,43.54
2023-03-28T17:59:02.262Z,44.38
2023-03-28T18:01:30.153Z,44.59
2023-03-28T18:03:58.063Z,44.47
2023-03-28T18:06:27.378Z,44.94
2023-03-28T18:08:55.256Z,44.89
2023-03-28T18:11:23.035Z,44.64
2023-03-28T18:13:52.584Z,45.69
2023-03-28T18:16:20.316Z,45.94
2023-03-28T18:18:48.102Z,44.75
2023-03-28T18:21:16.538Z,43.77
2023-03-28T18:23:45.965Z,45.33
2023-03-28T18:26:13.631Z,43.95
2023-03-28T18:28:42.133Z,45.97
2023-03-28T18:31:12.094Z,45.04
2023-03-28T18:33:42.912Z,45.20
2023-03-28T18:36:12.662Z,45.20
2023-03-28T18:38:42.071Z,46.26
2023-03-28T18:41:12.589Z,46.29
2023-03-28T18:43:42.323Z,45.55
2023-03-28T18:46:15.393Z,46.73
2023-03-28T18:48:44.629Z,47.00
2023-03-28T18:51:13.697Z,43.99
2023-03-28T18:53:41.627Z,46.81
2023-03-28T18:56:13.528Z,46.14
2023-03-28T18:58:41.375Z,47.99
2023-03-28T19:01:10.293Z,45.93
2023-03-28T19:03:40.496Z,46.32
2023-03-28T19:06:09.330Z,45.51
2023-03-28T19:08:37.065Z,47.99
2023-03-28T19:11:08.477Z,47.99
2023-03-28T19:13:37.516Z,46.38
2023-03-28T19:16:06.975Z,46.58
2023-03-28T19:18:37.378Z,47.21
2023-03-28T19:21:05.464Z,47.23
2023-03-28T19:23:33.124Z,47.51
2023-03-28T19:26:01.371Z,48.16
2023-03-28T19:28:29.152Z,47.98
2023-03-28T19:30:59.998Z,48.54
2023-03-28T19:33:28.532Z,49.17
2023-03-28T19:35:56.557Z,47.98
2023-03-28T19:38:25.788Z,48.99
2023-03-28T19:40:58.585Z,47.63
2023-03-28T19:43:26.486Z,50.02
2023-03-28T19:45:54.553Z,49.52
2023-03-28T19:48:24.256Z,49.40
2023-03-28T19:50:51.909Z,49.66
2023-03-28T19:53:21.335Z,48.39
2023-03-28T19:55:52.306Z,48.23
2023-03-28T19:58:19.946Z,49.17
2023-03-28T20:00:48.729Z,50.13
2023-03-28T20:03:16.701Z,48.83
2023-03-28T20:05:47.036Z,49.74
2023-03-28T20:08:16.029Z,49.04
2023-03-28T20:10:45.230Z,49.87
2023-03-28T20:13:13.168Z,50.19
2023-03-28T20:15:42.006Z,51.67
2023-03-28T20:18:10.469Z,50.08
2023-03-28T20:20:39.122Z,49.90
2023-03-28T20:23:08.563Z,50.71
2023-03-28T20:25:37.068Z,49.85
2023-03-28T20:28:05.365Z,52.17
2023-03-28T20:30:33.642Z,50.94
2023-03-28T20:33:01.650Z,51.64
2023-03-28T20:35:29.465Z,51.21
2023-03-28T20:37:57.183Z,52.36
2023-03-28T20:40:26.980Z,52.90
2023-03-28T20:42:54.829Z,53.34
2023-03-28T20:45:25.318Z,53.29
2023-03-28T20:47:58.617Z,53.61
2023-03-28T20:50:34.202Z,55.59
2023-03-28T20:53:02.186Z,56.45
2023-03-28T20:55:31.542Z,59.03
2023-03-28T20:57:59.442Z,59.60
2023-03-28T21:00:32.301Z,59.89
2023-03-28T21:03:00.491Z,61.74
2023-03-28T21:05:28.817Z,63.31
2023-03-28T21:07:56.665Z,63.15
2023-03-28T21:10:24.575Z,64.00
2023-03-28T21:12:53.684Z,63.50
2023-03-28T21:15:21.576Z,64.19
2023-03-28T21:17:53.588Z,64.41
2023-03-28T21:20:21.938Z,66.69
2023-03-28T21:22:49.636Z,67.27
2023-03-28T21:25:17.724Z,70.98
2023-03-28T21:27:45.812Z,72.06
2023-03-28T21:33:03.992Z,72.21
2023-03-28T21:35:31.773Z,74.16
2023-03-28T21:37:59.538Z,73.84
2023-03-28T21:40:27.224Z,77.51
2023-03-28T21:43:51.785Z,75.96
2023-03-28T21:46:20.713Z,77.74
2023-03-28T21:48:50.057Z,78.14
2023-03-28T21:51:18.559Z,77.32
2023-03-28T21:53:47.048Z,77.23
2023-03-28T21:56:16.694Z,79.11
2023-03-28T21:58:44.549Z,78.95
2023-03-28T22:01:13.735Z,79.60
2023-03-28T22:03:41.727Z,80.14
2023-03-28T22:06:11.482Z,78.15
2023-03-28T22:08:39.177Z,77.83
2023-03-28T22:11:13.488Z,82.13
2023-03-28T22:13:41.959Z,82.54
2023-03-28T22:16:12.783Z,82.56
2023-03-28T22:18:41.530Z,83.74
2023-03-28T22:21:17.471Z,86.55
2023-03-28T22:23:47.570Z,84.14
2023-03-28T22:26:16.004Z,85.59
2023-03-28T22:28:43.734Z,86.06
2023-03-28T22:31:11.648Z,85.83
2023-03-28T22:33:39.430Z,85.07
2023-03-28T22:36:07.930Z,87.23
2023-03-28T22:38:37.485Z,88.09
2023-03-28T22:41:06.185Z,86.17
2023-03-28T22:43:34.002Z,91.15
2023-03-28T22:46:01.747Z,88.29
2023-03-28T22:48:31.546Z,91.91
2023-03-28T22:51:01.671Z,92.30
2023-03-28T22:53:29.685Z,90.93
2023-03-28T22:55:59.123Z,92.00
2023-03-28T22:58:27.289Z,90.64
2023-03-28T23:00:55.143Z,92.25
2023-03-28T23:03:23.126Z,92.70
2023-03-28T23:05:51.609Z,94.07
2023-03-28T23:08:19.377Z,93.85
2023-03-28T23:10:47.649Z,92.34
2023-03-28T23:13:17.085Z,97.11
2023-03-28T23:15:44.808Z,94.98
2023-03-28T23:18:12.477Z,93.48
2023-03-28T23:20:40.126Z,90.75
2023-03-28T23:23:08.870Z,93.36
2023-03-28T23:25:37.098Z,96.92
2023-03-28T23:28:05.365Z,96.47
2023-03-28T23:30:34.464Z,99.53
2023-03-28T23:33:02.800Z,97.10
2023-03-28T23:35:30.585Z,97.47
2023-03-28T23:37:58.255Z,96.99
2023-03-28T23:40:25.934Z,94.89
2023-03-28T23:42:53.595Z,96.57
2023-03-28T23:45:21.207Z,94.47
2023-03-28T23:47:50.741Z,95.88
2023-03-28T23:50:18.658Z,97.61
2023-03-28T23:52:46.480Z,98.59
2023-03-28T23:55:14.466Z,97.18
2023-03-28T23:57:42.172Z,97.64
